createdAt,value
2023-04-06T00:01:22.250Z,9.85
2023-04-06T00:04:34.327Z,11.08
2023-04-06T00:13:46.652Z,11.18
2023-04-06T00:16:59.321Z,11.85
2023-04-06T00:20:17.422Z,10.73
2023-04-06T00:23:29.491Z,12.25
2023-04-06T00:26:43.558Z,10.95
2023-04-06T00:29:55.656Z,12.45
2023-04-06T00:33:07.882Z,11.58
2023-04-06T00:36:20.016Z,11.10
2023-04-06T00:39:32.900Z,10.88
2023-04-06T00:42:45.199Z,12.03
2023-04-06T00:49:16.885Z,11.93
2023-04-06T00:52:29.919Z,12.28
2023-04-06T00:55:42.425Z,13.13
2023-04-06T00:58:55.991Z,14.28
2023-04-06T01:02:09.191Z,12.68
2023-04-06T01:05:27.115Z,14.65
2023-04-06T01:08:41.386Z,13.75
2023-04-06T01:11:58.101Z,14.40
2023-04-06T01:15:16.554Z,14.20
2023-04-06T01:18:34.846Z,15.23
2023-04-06T01:24:52.202Z,14.25
2023-04-06T01:35:09.120Z,14.88
2023-04-06T01:38:23.379Z,15.28
2023-04-06T01:41:36.269Z,15.73
2023-04-06T01:44:49.386Z,15.30
2023-04-06T01:48:02.773Z,14.70
2023-04-06T01:51:15.012Z,15.40
2023-04-06T01:54:37.160Z,14.23
2023-04-06T02:09:54.225Z,13.70
2023-04-06T02:22:08.317Z,13.08
2023-04-06T02:25:21.436Z,14.40
2023-04-06T02:28:34.399Z,12.98
2023-04-06T02:31:47.253Z,12.90
2023-04-06T02:37:59.464Z,12.13
2023-04-06T02:50:12.939Z,13.48
2023-04-06T02:56:27.667Z,12.80
2023-04-06T02:59:39.633Z,12.98
2023-04-06T03:02:53.970Z,12.63
2023-04-06T03:09:07.149Z,13.53
2023-04-06T03:18:19.922Z,13.58
2023-04-06T03:33:38.663Z,12.73
2023-04-06T03:36:59.835Z,13.98
2023-04-06T03:40:05.128Z,13.98
2023-04-06T03:43:17.579Z,13.53
2023-04-06T03:49:29.707Z,12.70
2023-04-06T03:52:44.205Z,13.68
2023-04-06T03:55:56.460Z,13.85
2023-04-06T03:59:08.630Z,13.48
2023-04-06T04:02:21.112Z,13.15
2023-04-06T04:05:33.500Z,13.10
2023-04-06T04:08:46.431Z,14.25
2023-04-06T04:11:58.573Z,13.65
2023-04-06T04:15:13.499Z,13.55
2023-04-06T04:18:25.464Z,14.03
2023-04-06T04:21:39.038Z,13.58
2023-04-06T04:24:52.780Z,13.48
2023-04-06T04:28:05.100Z,13.80
2023-04-06T04:31:19.466Z,13.18
2023-04-06T04:34:34.180Z,14.60
2023-04-06T04:37:47.692Z,14.80
2023-04-06T04:41:00.284Z,14.18
2023-04-06T04:44:12.997Z,34.38
2023-04-06T04:47:26.187Z,16.70
2023-04-06T04:50:38.530Z,15.70
2023-04-06T04:53:51.330Z,15.80
2023-04-06T04:57:05.272Z,15.05
2023-04-06T05:00:24.169Z,15.95
2023-04-06T05:03:39.878Z,15.08
2023-04-06T05:06:54.007Z,17.07
2023-04-06T05:10:06.431Z,15.25
2023-04-06T05:13:20.983Z,15.18
2023-04-06T05:16:33.912Z,71.85
2023-04-06T05:19:46.863Z,24.78
2023-04-06T05:23:00.572Z,18.03
2023-04-06T05:26:13.814Z,25.53
2023-04-06T05:29:27.551Z,26.13
2023-04-06T05:32:40.508Z,24.48
2023-04-06T05:35:52.603Z,17.18
2023-04-06T05:39:05.106Z,16.40
2023-04-06T05:42:21.894Z,15.45
2023-04-06T05:45:39.020Z,14.13
2023-04-06T05:48:51.584Z,14.88
2023-04-06T05:52:05.372Z,14.13
2023-04-06T05:55:19.037Z,14.10
2023-04-06T05:58:34.191Z,13.00
2023-04-06T06:01:46.489Z,13.95
2023-04-06T06:04:59.559Z,13.80
2023-04-06T06:08:12.353Z,13.18
2023-04-06T06:11:24.689Z,11.75
2023-04-06T06:14:37.887Z,11.40
2023-04-06T06:17:50.657Z,12.28
2023-04-06T06:21:03.124Z,11.93
2023-04-06T06:24:16.555Z,13.43
2023-04-06T06:27:28.872Z,11.68
2023-04-06T06:30:41.483Z,11.75
2023-04-06T06:33:54.298Z,11.38
2023-04-06T06:37:06.720Z,9.10
2023-04-06T06:40:21.274Z,12.68
2023-04-06T06:43:33.901Z,11.88
2023-04-06T06:46:47.945Z,11.28
2023-04-06T06:50:00.384Z,10.95
2023-04-06T06:53:12.967Z,11.10
2023-04-06T06:56:25.244Z,10.90
2023-04-06T06:59:39.249Z,11.48
2023-04-06T07:02:52.014Z,11.28
2023-04-06T07:06:04.748Z,10.20
2023-04-06T07:09:17.135Z,10.15
2023-04-06T07:12:29.348Z,10.75
2023-04-06T07:15:41.709Z,9.10
2023-04-06T07:18:54.461Z,7.73
2023-04-06T07:25:07.281Z,7.95
2023-04-06T07:28:20.181Z,9.58
2023-04-06T07:31:32.898Z,8.33
2023-04-06T07:34:46.318Z,9.48
2023-04-06T07:38:00.280Z,9.40
2023-04-06T07:41:13.536Z,8.98
2023-04-06T07:44:26.454Z,7.78
2023-04-06T07:47:39.435Z,10.10
2023-04-06T07:50:51.775Z,7.93
2023-04-06T07:54:04.406Z,7.63
2023-04-06T07:57:16.920Z,7.60
2023-04-06T08:00:31.539Z,7.48
2023-04-06T08:03:44.946Z,7.50
2023-04-06T08:06:59.040Z,7.60
2023-04-06T08:10:15.026Z,8.53
2023-04-06T08:35:08.081Z,7.05
2023-04-06T08:38:20.320Z,6.90
2023-04-06T08:47:33.248Z,6.53
2023-04-06T08:53:46.337Z,6.05
2023-04-06T08:57:00.122Z,7.38
2023-04-06T09:00:18.192Z,6.10
2023-04-06T09:03:31.645Z,6.45
2023-04-06T09:50:35.511Z,7.25
2023-04-06T10:18:38.250Z,7.33
2023-04-06T10:37:20.131Z,8.70
2023-04-06T10:40:34.125Z,9.00
2023-04-06T10:43:48.783Z,14.25
2023-04-06T10:47:05.917Z,9.45
2023-04-06T10:56:22.283Z,9.48
2023-04-06T11:02:34.874Z,8.95
2023-04-06T11:14:47.465Z,11.08
2023-04-06T11:17:59.800Z,9.28
2023-04-06T11:27:13.516Z,9.80
2023-04-06T11:33:31.616Z,7.90
2023-04-06T11:39:55.323Z,7.85
2023-04-06T11:43:08.262Z,8.68
2023-04-06T11:46:25.291Z,7.93
2023-04-06T11:55:48.506Z,8.10
2023-04-06T11:59:02.157Z,8.28
2023-04-06T12:02:14.452Z,8.63
2023-04-06T12:05:26.971Z,8.65
2023-04-06T12:08:39.278Z,8.93
2023-04-06T12:11:51.813Z,8.73
2023-04-06T12:15:05.260Z,7.70
2023-04-06T12:18:17.456Z,7.58
2023-04-06T12:21:30.786Z,7.85
2023-04-06T12:27:42.902Z,8.43
2023-04-06T12:30:55.844Z,8.65
2023-04-06T12:34:08.891Z,7.95
2023-04-06T12:37:21.726Z,7.40
2023-04-06T12:44:01.952Z,8.68
2023-04-06T12:47:14.266Z,8.80
2023-04-06T12:56:27.900Z,8.45
2023-04-06T13:02:40.786Z,9.65
2023-04-06T13:05:54.735Z,9.15
2023-04-06T13:09:09.140Z,9.65
2023-04-06T13:12:21.452Z,9.45
2023-04-06T13:15:35.754Z,8.95
2023-04-06T13:18:49.206Z,9.75
2023-04-06T13:22:01.674Z,10.83
2023-04-06T13:31:14.622Z,10.18
2023-04-06T13:34:27.665Z,9.78
2023-04-06T13:37:42.312Z,10.10
2023-04-06T13:40:55.146Z,11.70
2023-04-06T13:44:08.887Z,10.75
2023-04-06T13:47:23.704Z,10.20
2023-04-06T13:50:37.966Z,10.30
2023-04-06T13:53:52.413Z,10.98
2023-04-06T13:57:05.504Z,10.95
2023-04-06T14:00:21.461Z,10.60
2023-04-06T14:03:36.431Z,10.78
2023-04-06T14:06:49.802Z,10.58
2023-04-06T14:10:02.396Z,10.53
2023-04-06T14:16:15.421Z,11.63
2023-04-06T14:19:27.770Z,11.13
2023-04-06T14:22:40.018Z,10.93
2023-04-06T14:25:52.251Z,11.58
2023-04-06T14:29:05.405Z,10.63
2023-04-06T14:32:19.406Z,11.78
2023-04-06T14:35:33.605Z,11.68
2023-04-06T14:38:47.670Z,12.58
2023-04-06T14:41:59.778Z,11.33
2023-04-06T14:45:13.896Z,11.88
2023-04-06T14:48:25.963Z,13.15
2023-04-06T14:51:38.919Z,13.33
2023-04-06T14:54:50.997Z,12.60
2023-04-06T14:58:03.103Z,12.53
2023-04-06T15:01:15.119Z,12.50
2023-04-06T15:04:27.277Z,12.75
2023-04-06T15:07:39.401Z,13.53
2023-04-06T15:10:51.697Z,13.38
2023-04-06T15:14:04.375Z,12.93
2023-04-06T15:17:16.354Z,12.15
2023-04-06T15:20:28.537Z,12.20
2023-04-06T15:23:40.677Z,12.35
2023-04-06T15:26:52.719Z,12.85
2023-04-06T15:30:04.854Z,13.38
2023-04-06T15:33:17.237Z,13.00
2023-04-06T15:36:34.129Z,12.90
2023-04-06T15:39:46.415Z,12.75
2023-04-06T15:42:58.526Z,14.68
2023-04-06T15:46:10.872Z,14.35
2023-04-06T15:49:23.013Z,14.25
2023-04-06T15:52:35.075Z,12.83
2023-04-06T15:55:47.093Z,13.05
2023-04-06T15:58:59.519Z,13.43
2023-04-06T16:02:12.101Z,14.93
2023-04-06T16:05:24.415Z,14.88
2023-04-06T16:08:36.856Z,14.53
2023-04-06T16:11:48.970Z,14.50
2023-04-06T16:15:01.184Z,15.13
2023-04-06T16:18:13.544Z,16.75
2023-04-06T16:21:26.945Z,18.13
2023-04-06T16:24:39.289Z,17.88
2023-04-06T16:27:52.120Z,17.98
2023-04-06T16:31:04.057Z,19.78
2023-04-06T16:34:16.238Z,19.80
2023-04-06T16:37:29.983Z,23.40
2023-04-06T16:40:42.211Z,21.77
2023-04-06T16:43:55.200Z,20.45
2023-04-06T16:47:07.854Z,21.50
2023-04-06T16:50:20.626Z,22.15
2023-04-06T16:53:32.624Z,22.88
2023-04-06T16:56:44.672Z,23.28
2023-04-06T16:59:56.783Z,20.95
2023-04-06T17:03:09.232Z,21.00
2023-04-06T17:06:22.175Z,23.33
2023-04-06T17:09:34.781Z,23.02
2023-04-06T17:12:46.952Z,22.43
2023-04-06T17:15:59.110Z,21.13
2023-04-06T17:19:11.245Z,20.93
2023-04-06T17:22:24.647Z,21.00
2023-04-06T17:25:36.927Z,22.68
2023-04-06T17:28:49.595Z,21.30
2023-04-06T17:32:01.977Z,21.60
2023-04-06T17:35:16.214Z,21.00
2023-04-06T17:38:28.422Z,20.90
2023-04-06T17:41:40.618Z,22.93
2023-04-06T17:44:53.310Z,25.88
2023-04-06T17:48:05.978Z,22.00
2023-04-06T17:51:21.614Z,19.75
2023-04-06T17:54:33.869Z,21.35
2023-04-06T17:57:47.117Z,21.80
2023-04-06T18:00:59.932Z,23.65
2023-04-06T18:04:12.214Z,21.93
2023-04-06T18:07:24.796Z,21.30
2023-04-06T18:10:37.156Z,20.43
2023-04-06T18:13:49.981Z,21.80
2023-04-06T18:17:03.457Z,22.63
2023-04-06T18:20:17.684Z,23.28
2023-04-06T18:23:29.948Z,23.45
2023-04-06T18:26:42.695Z,20.55
2023-04-06T18:29:55.155Z,22.20
2023-04-06T18:33:07.952Z,23.40
2023-04-06T18:36:21.681Z,22.53
2023-04-06T18:39:46.924Z,22.13
2023-04-06T18:42:59.835Z,23.02
2023-04-06T18:49:54.906Z,25.20
2023-04-06T18:56:51.436Z,21.98
2023-04-06T19:00:04.118Z,22.25
2023-04-06T19:03:16.999Z,23.65
2023-04-06T19:06:31.362Z,24.65
2023-04-06T19:09:43.453Z,24.03
2023-04-06T19:13:01.695Z,23.90
2023-04-06T19:19:16.739Z,24.03
2023-04-06T19:22:29.413Z,25.33
2023-04-06T19:56:52.264Z,27.10
2023-04-06T20:03:05.367Z,25.45
2023-04-06T20:06:17.934Z,25.05
2023-04-06T20:09:30.736Z,26.90
2023-04-06T20:15:43.140Z,27.63
2023-04-06T20:37:25.713Z,26.93
2023-04-06T20:43:52.085Z,25.50
2023-04-06T20:47:08.555Z,26.98
2023-04-06T20:50:21.638Z,29.95
2023-04-06T20:53:33.984Z,26.75
2023-04-06T20:56:46.455Z,27.13
2023-04-06T20:59:58.884Z,27.63
2023-04-06T21:03:11.282Z,26.55
2023-04-06T21:06:23.288Z,29.53
2023-04-06T21:09:35.298Z,31.78
2023-04-06T21:12:47.348Z,31.25
2023-04-06T21:16:00.344Z,29.95
2023-04-06T21:19:12.665Z,28.75
2023-04-06T21:22:24.693Z,31.15
2023-04-06T21:25:36.723Z,30.43
2023-04-06T21:28:48.872Z,30.18
2023-04-06T21:32:00.937Z,30.03
2023-04-06T21:35:15.593Z,30.13
2023-04-06T21:38:27.603Z,27.88
2023-04-06T21:41:40.888Z,27.60
2023-04-06T21:44:52.845Z,32.48
2023-04-06T21:48:05.073Z,27.93
2023-04-06T21:51:23.895Z,28.33
2023-04-06T21:54:39.785Z,28.48
2023-04-06T21:57:51.863Z,27.03
2023-04-06T22:01:03.893Z,29.63
2023-04-06T22:04:16.132Z,30.73
2023-04-06T22:07:28.593Z,28.33
2023-04-06T22:19:42.292Z,26.30
2023-04-06T22:36:34.087Z,26.10
2023-04-06T22:39:46.472Z,28.00
2023-04-06T22:42:58.618Z,25.73
2023-04-06T22:55:12.196Z,24.98
2023-04-06T23:20:05.511Z,28.03
2023-04-06T23:23:17.809Z,27.15
2023-04-06T23:26:30.114Z,25.93
2023-04-06T23:29:42.284Z,26.18
2023-04-06T23:35:55.364Z,26.25
2023-04-06T23:39:07.756Z,26.55
2023-04-06T23:42:20.095Z,26.95
2023-04-06T23:45:33.284Z,28.00
2023-04-06T23:48:45.789Z,25.70
2023-04-06T23:51:58.414Z,25.75
2023-04-06T23:55:11.926Z,27.68
2023-04-06T23:58:24.527Z,28.08
